sensor_id;sensor_type;location;lat;lon;timestamp;pressure;altitude;pressure_sealevel;temperature;humidity
5814;BME280;2933;52.302;8.134;2022-12-13T00:02:26;100230.94;;;-5.88;100.00
5814;BME280;2933;52.302;8.134;2022-12-13T00:07:28;100237.69;;;-5.82;100.00
5814;BME280;2933;52.302;8.134;2022-12-13T00:12:31;100233.47;;;-5.81;100.00
5814;BME280;2933;52.302;8.134;2022-12-13T00:17:33;100235.13;;;-5.96;100.00
5814;BME280;2933;52.302;8.134;2022-12-13T00:22:35;100228.38;;;-5.89;100.00
5814;BME280;2933;52.302;8.134;2022-12-13T00:27:37;100188.50;;;-6.06;100.00
5814;BME280;2933;52.302;8.134;2022-12-13T00:32:39;100224.09;;;-6.04;100.00
5814;BME280;2933;52.302;8.134;2022-12-13T00:37:40;100219.88;;;-5.96;100.00
5814;BME280;2933;52.302;8.134;2022-12-13T00:42:43;100214.78;;;-5.97;100.00
5814;BME280;2933;52.302;8.134;2022-12-13T00:47:45;100211.41;;;-6.10;100.00
5814;BME280;2933;52.302;8.134;2022-12-13T00:52:46;100210.53;;;-6.14;100.00
5814;BME280;2933;52.302;8.134;2022-12-13T00:57:50;100208.78;;;-6.34;100.00
5814;BME280;2933;52.302;8.134;2022-12-13T01:02:51;100214.69;;;-6.42;100.00
5814;BME280;2933;52.302;8.134;2022-12-13T01:07:53;100208.81;;;-6.27;100.00
5814;BME280;2933;52.302;8.134;2022-12-13T01:12:56;100180.72;;;-6.58;100.00
5814;BME280;2933;52.302;8.134;2022-12-13T01:17:57;100188.38;;;-6.49;100.00
5814;BME280;2933;52.302;8.134;2022-12-13T01:22:59;100194.38;;;-6.38;100.00
5814;BME280;2933;52.302;8.134;2022-12-13T01:28:02;100200.25;;;-6.43;100.00
5814;BME280;2933;52.302;8.134;2022-12-13T01:33:03;100205.25;;;-6.62;100.00
5814;BME280;2933;52.302;8.134;2022-12-13T01:38:05;100201.06;;;-6.51;100.00
5814;BME280;2933;52.302;8.134;2022-12-13T01:43:11;100201.91;;;-6.53;100.00
5814;BME280;2933;52.302;8.134;2022-12-13T01:48:15;100180.66;;;-6.71;100.00
5814;BME280;2933;52.302;8.134;2022-12-13T01:53:22;100200.25;;;-6.42;100.00
5814;BME280;2933;52.302;8.134;2022-12-13T01:58:26;100201.00;;;-6.64;100.00
5814;BME280;2933;52.302;8.134;2022-12-13T02:03:28;100192.59;;;-6.57;100.00
5814;BME280;2933;52.302;8.134;2022-12-13T02:08:29;100195.09;;;-6.65;100.00
5814;BME280;2933;52.302;8.134;2022-12-13T02:13:33;100172.19;;;-6.68;100.00
5814;BME280;2933;52.302;8.134;2022-12-13T02:18:46;100185.78;;;-6.58;100.00
5814;BME280;2933;52.302;8.134;2022-12-13T02:30:22;100175.47;;;-6.88;100.00
5814;BME280;2933;52.302;8.134;2022-12-13T02:35:30;100179.72;;;-6.90;100.00
5814;BME280;2933;52.302;8.134;2022-12-13T02:40:38;100171.19;;;-6.95;100.00
5814;BME280;2933;52.302;8.134;2022-12-13T02:45:46;100172.94;;;-6.86;100.00
5814;BME280;2933;52.302;8.134;2022-12-13T02:50:50;100180.53;;;-6.94;100.00
5814;BME280;2933;52.302;8.134;2022-12-13T02:55:52;100181.44;;;-6.86;100.00
5814;BME280;2933;52.302;8.134;2022-12-13T03:01:03;100189.81;;;-6.99;100.00
5814;BME280;2933;52.302;8.134;2022-12-13T03:06:19;100195.72;;;-7.03;100.00
5814;BME280;2933;52.302;8.134;2022-12-13T03:11:40;100185.59;;;-6.99;100.00
5814;BME280;2933;52.302;8.134;2022-12-13T03:17:04;100178.78;;;-7.04;100.00
5814;BME280;2933;52.302;8.134;2022-12-13T03:22:07;100180.53;;;-6.94;100.00
5814;BME280;2933;52.302;8.134;2022-12-13T03:27:08;100170.41;;;-6.92;100.00
5814;BME280;2933;52.302;8.134;2022-12-13T03:32:11;100167.63;;;-7.26;100.00
5814;BME280;2933;52.302;8.134;2022-12-13T03:37:13;100185.56;;;-7.05;100.00
5814;BME280;2933;52.302;8.134;2022-12-13T03:42:15;100189.81;;;-6.99;100.00
5814;BME280;2933;52.302;8.134;2022-12-13T03:47:18;100172.66;;;-7.34;100.00
5814;BME280;2933;52.302;8.134;2022-12-13T03:52:20;100172.72;;;-7.25;100.00
5814;BME280;2933;52.302;8.134;2022-12-13T03:57:22;100170.28;;;-7.08;100.00
5814;BME280;2933;52.302;8.134;2022-12-13T04:02:24;100155.94;;;-7.01;100.00
5814;BME280;2933;52.302;8.134;2022-12-13T04:07:26;100181.47;;;-6.76;100.00
5814;BME280;2933;52.302;8.134;2022-12-13T04:12:27;100184.75;;;-6.99;100.00
5814;BME280;2933;52.302;8.134;2022-12-13T04:17:53;100180.56;;;-6.91;100.00
5814;BME280;2933;52.302;8.134;2022-12-13T04:22:55;100183.00;;;-7.09;100.00
5814;BME280;2933;52.302;8.134;2022-12-13T04:27:56;100176.31;;;-6.89;100.00
5814;BME280;2933;52.302;8.134;2022-12-13T04:33:00;100176.31;;;-6.93;100.00
5814;BME280;2933;52.302;8.134;2022-12-13T04:38:01;100169.53;;;-6.94;100.00
5814;BME280;2933;52.302;8.134;2022-12-13T04:43:03;100146.72;;;-6.85;100.00
5814;BME280;2933;52.302;8.134;2022-12-13T04:48:06;100144.06;;;-7.05;100.00
5814;BME280;2933;52.302;8.134;2022-12-13T04:53:13;100172.00;;;-7.08;100.00
5814;BME280;2933;52.302;8.134;2022-12-13T04:58:14;100166.88;;;-7.10;100.00
5814;BME280;2933;52.302;8.134;2022-12-13T05:03:17;100176.06;;;-7.31;100.00
5814;BME280;2933;52.302;8.134;2022-12-13T05:08:18;100171.84;;;-7.28;100.00
5814;BME280;2933;52.302;8.134;2022-12-13T05:13:20;100159.31;;;-7.07;100.00
5814;BME280;2933;52.302;8.134;2022-12-13T05:18:23;100157.41;;;-7.40;100.00
5814;BME280;2933;52.302;8.134;2022-12-13T05:23:25;100159.16;;;-7.32;100.00
5814;BME280;2933;52.302;8.134;2022-12-13T05:28:27;100147.28;;;-7.31;100.00
5814;BME280;2933;52.302;8.134;2022-12-13T05:33:31;100135.44;;;-7.38;100.00
5814;BME280;2933;52.302;8.134;2022-12-13T05:38:32;100149.94;;;-7.14;100.00
5814;BME280;2933;52.302;8.134;2022-12-13T05:43:34;100139.72;;;-7.25;100.00
5814;BME280;2933;52.302;8.134;2022-12-13T05:48:37;100135.38;;;-7.44;100.00
5814;BME280;2933;52.302;8.134;2022-12-13T05:53:39;100115.88;;;-7.50;100.00
5814;BME280;2933;52.302;8.134;2022-12-13T05:58:43;100145.59;;;-7.35;100.00
5814;BME280;2933;52.302;8.134;2022-12-13T06:03:46;100144.78;;;-7.25;100.00
5814;BME280;2933;52.302;8.134;2022-12-13T06:08:48;100146.28;;;-7.55;100.00
5814;BME280;2933;52.302;8.134;2022-12-13T06:13:50;100141.19;;;-7.56;100.00
5814;BME280;2933;52.302;8.134;2022-12-13T06:18:54;100142.16;;;-7.42;100.00
5814;BME280;2933;52.302;8.134;2022-12-13T06:23:56;100128.44;;;-7.69;100.00
5814;BME280;2933;52.302;8.134;2022-12-13T06:28:57;100143.78;;;-7.53;100.00
5814;BME280;2933;52.302;8.134;2022-12-13T06:34:01;100139.44;;;-7.62;100.00
5814;BME280;2933;52.302;8.134;2022-12-13T06:39:03;100124.22;;;-7.62;100.00
5814;BME280;2933;52.302;8.134;2022-12-13T06:44:05;100136.91;;;-7.62;100.00
5814;BME280;2933;52.302;8.134;2022-12-13T06:49:08;100143.03;;;-7.37;100.00
5814;BME280;2933;52.302;8.134;2022-12-13T06:54:10;100152.41;;;-7.28;100.00
5814;BME280;2933;52.302;8.134;2022-12-13T06:59:11;100148.78;;;-7.61;100.00
5814;BME280;2933;52.302;8.134;2022-12-13T07:04:14;100155.50;;;-7.66;100.00
5814;BME280;2933;52.302;8.134;2022-12-13T07:09:16;100163.06;;;-7.71;100.00
5814;BME280;2933;52.302;8.134;2022-12-13T07:14:17;100158.84;;;-7.72;100.00
5814;BME280;2933;52.302;8.134;2022-12-13T07:19:20;100162.22;;;-7.70;100.00
5814;BME280;2933;52.302;8.134;2022-12-13T07:24:22;100168.94;;;-7.75;100.00
5814;BME280;2933;52.302;8.134;2022-12-13T07:29:24;100154.34;;;-8.01;100.00
5814;BME280;2933;52.302;8.134;2022-12-13T07:34:26;100151.91;;;-7.90;100.00
5814;BME280;2933;52.302;8.134;2022-12-13T07:39:28;100170.47;;;-7.94;100.00
5814;BME280;2933;52.302;8.134;2022-12-13T07:44:31;100174.09;;;-7.69;100.00
5814;BME280;2933;52.302;8.134;2022-12-13T07:49:34;100168.94;;;-7.76;100.00
5814;BME280;2933;52.302;8.134;2022-12-13T07:54:36;100172.25;;;-7.84;100.00
5814;BME280;2933;52.302;8.134;2022-12-13T07:59:37;100159.78;;;-7.60;100.00
5814;BME280;2933;52.302;8.134;2022-12-13T08:04:41;100161.59;;;-7.44;100.00
5814;BME280;2933;52.302;8.134;2022-12-13T08:09:42;100173.41;;;-7.48;100.00
5814;BME280;2933;52.302;8.134;2022-12-13T08:14:44;100169.22;;;-7.44;100.00
5814;BME280;2933;52.302;8.134;2022-12-13T08:19:47;100171.84;;;-7.28;100.00
5814;BME280;2933;52.302;8.134;2022-12-13T08:24:48;100166.75;;;-7.32;100.00
5814;BME280;2933;52.302;8.134;2022-12-13T08:29:50;100123.53;;;-7.44;100.00
5814;BME280;2933;52.302;8.134;2022-12-13T08:34:52;100153.19;;;-7.34;100.00
5814;BME280;2933;52.302;8.134;2022-12-13T08:39:54;100179.66;;;-7.02;100.00
5814;BME280;2933;52.302;8.134;2022-12-13T08:44:55;100173.75;;;-7.00;100.00
5814;BME280;2933;52.302;8.134;2022-12-13T08:49:58;100181.41;;;-6.89;100.00
5814;BME280;2933;52.302;8.134;2022-12-13T08:55:01;100172.13;;;-6.82;100.00
5814;BME280;2933;52.302;8.134;2022-12-13T09:00:03;100179.72;;;-6.85;100.00
5814;BME280;2933;52.302;8.134;2022-12-13T09:05:07;100177.22;;;-6.84;100.00
5814;BME280;2933;52.302;8.134;2022-12-13T09:10:10;100178.09;;;-6.75;100.00
5814;BME280;2933;52.302;8.134;2022-12-13T09:15:12;100172.19;;;-6.68;100.00
5814;BME280;2933;52.302;8.134;2022-12-13T09:20:16;100160.34;;;-6.69;100.00
5814;BME280;2933;52.302;8.134;2022-12-13T09:25:17;100187.50;;;-6.57;100.00
5814;BME280;2933;52.302;8.134;2022-12-13T09:30:19;100153.56;;;-6.72;100.00
5814;BME280;2933;52.302;8.134;2022-12-13T09:35:21;100184.19;;;-6.38;100.00
5814;BME280;2933;52.302;8.134;2022-12-13T09:40:26;100193.47;;;-6.44;100.00
5814;BME280;2933;52.302;8.134;2022-12-13T09:45:29;100151.00;;;-6.72;100.00
5814;BME280;2933;52.302;8.134;2022-12-13T09:50:34;100202.00;;;-6.27;100.00
5814;BME280;2933;52.302;8.134;2022-12-13T09:55:38;100174.84;;;-6.34;100.00
5814;BME280;2933;52.302;8.134;2022-12-13T10:00:43;100178.31;;;-6.13;100.00
5814;BME280;2933;52.302;8.134;2022-12-13T10:05:56;100203.75;;;-5.92;100.00
5814;BME280;2933;52.302;8.134;2022-12-13T10:10:58;100202.94;;;-5.85;100.00
5814;BME280;2933;52.302;8.134;2022-12-13T10:16:02;100197.84;;;-6.00;100.00
5814;BME280;2933;52.302;8.134;2022-12-13T10:21:11;100189.34;;;-5.90;100.00
5814;BME280;2933;52.302;8.134;2022-12-13T10:26:13;100200.41;;;-5.83;100.00
5814;BME280;2933;52.302;8.134;2022-12-13T10:31:17;100194.50;;;-5.68;100.00
5814;BME280;2933;52.302;8.134;2022-12-13T10:36:32;100183.44;;;-5.67;100.00
5814;BME280;2933;52.302;8.134;2022-12-13T10:41:36;100146.97;;;-5.77;100.00
5814;BME280;2933;52.302;8.134;2022-12-13T10:46:38;100171.56;;;-5.43;100.00
5814;BME280;2933;52.302;8.134;2022-12-13T10:51:42;100135.97;;;-5.60;100.00
5814;BME280;2933;52.302;8.134;2022-12-13T10:56:46;100154.59;;;-5.33;100.00
5814;BME280;2933;52.302;8.134;2022-12-13T11:01:48;100155.47;;;-5.28;100.00
5814;BME280;2933;52.302;8.134;2022-12-13T11:06:51;100106.22;;;-5.46;100.00
5814;BME280;2933;52.302;8.134;2022-12-13T11:11:55;100129.97;;;-5.14;100.00
5814;BME280;2933;52.302;8.134;2022-12-13T11:16:58;100096.88;;;-5.21;100.00
5814;BME280;2933;52.302;8.134;2022-12-13T11:22:03;100109.50;;;-4.83;100.00
5814;BME280;2933;52.302;8.134;2022-12-13T11:27:19;100102.63;;;-4.66;100.00
5814;BME280;2933;52.302;8.134;2022-12-13T11:32:35;100054.19;;;-4.74;100.00
5814;BME280;2933;52.302;8.134;2022-12-13T11:37:45;100082.00;;;-4.30;100.00
5814;BME280;2933;52.302;8.134;2022-12-13T11:42:52;100078.53;;;-4.22;100.00
5814;BME280;2933;52.302;8.134;2022-12-13T11:48:01;100060.66;;;-4.15;100.00
5814;BME280;2933;52.302;8.134;2022-12-13T11:53:19;100072.59;;;-4.22;100.00
5814;BME280;2933;52.302;8.134;2022-12-13T11:58:26;100076.72;;;-4.02;100.00
5814;BME280;2933;52.302;8.134;2022-12-13T12:03:35;100064.75;;;-3.96;100.00
5814;BME280;2933;52.302;8.134;2022-12-13T12:08:43;100063.84;;;-3.92;100.00
5814;BME280;2933;52.302;8.134;2022-12-13T12:13:49;100064.69;;;-3.88;100.00
5814;BME280;2933;52.302;8.134;2022-12-13T12:18:53;100055.31;;;-3.86;100.00
5814;BME280;2933;52.302;8.134;2022-12-13T12:24:05;100063.69;;;-3.70;100.00
5814;BME280;2933;52.302;8.134;2022-12-13T12:29:24;100058.53;;;-3.64;100.00
5814;BME280;2933;52.302;8.134;2022-12-13T12:34:36;100049.97;;;-3.57;100.00
5814;BME280;2933;52.302;8.134;2022-12-13T12:39:56;100049.00;;;-3.48;100.00
5814;BME280;2933;52.302;8.134;2022-12-13T12:45:14;100045.59;;;-3.48;100.00
5814;BME280;2933;52.302;8.134;2022-12-13T12:50:32;100046.41;;;-3.45;100.00
5814;BME280;2933;52.302;8.134;2022-12-13T12:55:45;100004.03;;;-3.61;100.00
5814;BME280;2933;52.302;8.134;2022-12-13T13:00:58;99999.88;;;-3.73;100.00
5814;BME280;2933;52.302;8.134;2022-12-13T13:06:08;100036.19;;;-3.42;100.00
5814;BME280;2933;52.302;8.134;2022-12-13T13:11:13;100024.22;;;-3.38;100.00
5814;BME280;2933;52.302;8.134;2022-12-13T13:16:30;100019.22;;;-3.49;100.00
5814;BME280;2933;52.302;8.134;2022-12-13T13:21:41;100014.06;;;-3.44;100.00
5814;BME280;2933;52.302;8.134;2022-12-13T13:26:49;100020.00;;;-3.42;100.00
5814;BME280;2933;52.302;8.134;2022-12-13T13:31:55;100014.88;;;-3.39;100.00
5814;BME280;2933;52.302;8.134;2022-12-13T13:37:00;100025.03;;;-3.33;100.00
5814;BME280;2933;52.302;8.134;2022-12-13T13:42:17;100027.66;;;-3.42;100.00
5814;BME280;2933;52.302;8.134;2022-12-13T13:47:33;100035.38;;;-3.48;100.00
5814;BME280;2933;52.302;8.134;2022-12-13T13:52:45;100024.41;;;-3.57;100.00
5814;BME280;2933;52.302;8.134;2022-12-13T13:58:19;100034.69;;;-3.63;100.00
5814;BME280;2933;52.302;8.134;2022-12-13T14:04:02;100020.22;;;-3.64;100.00
5814;BME280;2933;52.302;8.134;2022-12-13T14:09:45;100030.66;;;-3.84;100.00
5814;BME280;2933;52.302;8.134;2022-12-13T14:15:42;100023.03;;;-3.90;100.00
5814;BME280;2933;52.302;8.134;2022-12-13T14:20:54;100034.13;;;-3.93;100.00
5814;BME280;2933;52.302;8.134;2022-12-13T14:26:12;100035.97;;;-4.13;100.00
5814;BME280;2933;52.302;8.134;2022-12-13T14:31:20;100000.50;;;-4.41;100.00
5814;BME280;2933;52.302;8.134;2022-12-13T14:36:28;100031.84;;;-4.30;100.00
5814;BME280;2933;52.302;8.134;2022-12-13T14:41:31;100039.47;;;-4.24;100.00
5814;BME280;2933;52.302;8.134;2022-12-13T14:46:34;100026.84;;;-4.45;100.00
5814;BME280;2933;52.302;8.134;2022-12-13T14:51:37;100046.44;;;-4.55;100.00
5814;BME280;2933;52.302;8.134;2022-12-13T14:56:53;100032.97;;;-4.71;100.00
5814;BME280;2933;52.302;8.134;2022-12-13T15:01:58;100037.19;;;-4.67;100.00
5814;BME280;2933;52.302;8.134;2022-12-13T15:07:04;99997.47;;;-5.05;100.00
5814;BME280;2933;52.302;8.134;2022-12-13T15:12:08;100026.25;;;-4.88;100.00
5814;BME280;2933;52.302;8.134;2022-12-13T15:17:25;100019.50;;;-5.01;100.00
5814;BME280;2933;52.302;8.134;2022-12-13T15:22:28;100016.09;;;-4.92;100.00
5814;BME280;2933;52.302;8.134;2022-12-13T15:27:29;100011.78;;;-4.82;100.00
5814;BME280;2933;52.302;8.134;2022-12-13T15:32:33;99989.81;;;-5.00;100.00
5814;BME280;2933;52.302;8.134;2022-12-13T15:37:34;100001.72;;;-5.04;100.00
5814;BME280;2933;52.302;8.134;2022-12-13T15:42:37;99970.28;;;-5.06;100.00
5814;BME280;2933;52.302;8.134;2022-12-13T15:47:44;99990.69;;;-5.09;100.00
5814;BME280;2933;52.302;8.134;2022-12-13T15:52:58;99994.91;;;-5.02;100.00
5814;BME280;2933;52.302;8.134;2022-12-13T15:58:00;99961.09;;;-5.30;100.00
5814;BME280;2933;52.302;8.134;2022-12-13T16:03:05;99988.97;;;-5.09;100.00
5814;BME280;2933;52.302;8.134;2022-12-13T16:08:23;99982.31;;;-5.38;100.00
5814;BME280;2933;52.302;8.134;2022-12-13T16:13:27;99967.09;;;-5.45;100.00
5814;BME280;2933;52.302;8.134;2022-12-13T16:18:32;99970.44;;;-5.39;100.00
5814;BME280;2933;52.302;8.134;2022-12-13T16:23:33;99969.59;;;-5.39;100.00
5814;BME280;2933;52.302;8.134;2022-12-13T16:28:35;99962.84;;;-5.48;100.00
5814;BME280;2933;52.302;8.134;2022-12-13T16:33:38;99951.03;;;-5.66;100.00
5814;BME280;2933;52.302;8.134;2022-12-13T16:38:39;99954.41;;;-5.58;100.00
5814;BME280;2933;52.302;8.134;2022-12-13T16:43:47;99962.00;;;-5.52;100.00
5814;BME280;2933;52.302;8.134;2022-12-13T16:48:53;99963.69;;;-5.49;100.00
5814;BME280;2933;52.302;8.134;2022-12-13T16:53:55;99958.59;;;-5.52;100.00
5814;BME280;2933;52.302;8.134;2022-12-13T16:58:56;99946.75;;;-5.52;100.00
5814;BME280;2933;52.302;8.134;2022-12-13T17:03:59;99960.31;;;-5.51;100.00
5814;BME280;2933;52.302;8.134;2022-12-13T17:09:00;99963.69;;;-5.49;100.00
5814;BME280;2933;52.302;8.134;2022-12-13T17:14:02;99944.22;;;-5.62;100.00
5814;BME280;2933;52.302;8.134;2022-12-13T17:19:06;99959.53;;;-5.65;100.00
5814;BME280;2933;52.302;8.134;2022-12-13T17:24:07;99968.00;;;-5.65;100.00
5814;BME280;2933;52.302;8.134;2022-12-13T17:29:09;99966.25;;;-5.49;100.00
5814;BME280;2933;52.302;8.134;2022-12-13T17:34:12;99971.38;;;-5.60;100.00
5814;BME280;2933;52.302;8.134;2022-12-13T17:39:14;99971.38;;;-5.71;100.00
5814;BME280;2933;52.302;8.134;2022-12-13T17:44:15;99964.56;;;-5.61;100.00
5814;BME280;2933;52.302;8.134;2022-12-13T17:49:18;99947.63;;;-5.70;100.00
5814;BME280;2933;52.302;8.134;2022-12-13T17:54:20;99956.13;;;-5.66;100.00
5814;BME280;2933;52.302;8.134;2022-12-13T17:59:23;99954.41;;;-5.61;100.00
5814;BME280;2933;52.302;8.134;2022-12-13T18:04:27;99929.03;;;-5.86;100.00
5814;BME280;2933;52.302;8.134;2022-12-13T18:09:29;99939.16;;;-5.70;100.00
5814;BME280;2933;52.302;8.134;2022-12-13T18:14:30;99907.81;;;-5.85;100.00
5814;BME280;2933;52.302;8.134;2022-12-13T18:19:33;99939.16;;;-5.65;100.00
5814;BME280;2933;52.302;8.134;2022-12-13T18:24:37;99944.25;;;-5.73;100.00
5814;BME280;2933;52.302;8.134;2022-12-13T18:29:39;99930.69;;;-5.77;100.00
5814;BME280;2933;52.302;8.134;2022-12-13T18:34:43;99920.56;;;-5.81;100.00
5814;BME280;2933;52.302;8.134;2022-12-13T18:39:44;99916.28;;;-5.75;100.00
5814;BME280;2933;52.302;8.134;2022-12-13T18:44:46;99926.47;;;-5.82;100.00
5814;BME280;2933;52.302;8.134;2022-12-13T18:49:49;99885.88;;;-6.12;100.00
5814;BME280;2933;52.302;8.134;2022-12-13T18:54:51;99914.66;;;-5.97;100.00
5814;BME280;2933;52.302;8.134;2022-12-13T18:59:52;99901.06;;;-5.98;100.00
5814;BME280;2933;52.302;8.134;2022-12-13T19:04:55;99901.13;;;-6.04;100.00
5814;BME280;2933;52.302;8.134;2022-12-13T19:09:57;99903.63;;;-5.98;100.00
5814;BME280;2933;52.302;8.134;2022-12-13T19:14:58;99901.91;;;-5.94;100.00
5814;BME280;2933;52.302;8.134;2022-12-13T19:20:02;99902.84;;;-6.12;100.00
5814;BME280;2933;52.302;8.134;2022-12-13T19:25:05;99909.56;;;-5.93;100.00
5814;BME280;2933;52.302;8.134;2022-12-13T19:30:07;99901.06;;;-5.93;100.00
5814;BME280;2933;52.302;8.134;2022-12-13T19:35:10;99886.72;;;-6.08;100.00
5814;BME280;2933;52.302;8.134;2022-12-13T19:40:12;99882.47;;;-6.03;100.00
5814;BME280;2933;52.302;8.134;2022-12-13T19:45:14;99885.06;;;-6.12;100.00
5814;BME280;2933;52.302;8.134;2022-12-13T19:50:17;99873.19;;;-6.18;100.00
5814;BME280;2933;52.302;8.134;2022-12-13T19:55:18;99877.44;;;-6.17;100.00
5814;BME280;2933;52.302;8.134;2022-12-13T20:00:20;99869.84;;;-6.26;100.00
5814;BME280;2933;52.302;8.134;2022-12-13T20:05:23;99858.78;;;-6.18;100.00
5814;BME280;2933;52.302;8.134;2022-12-13T20:10:26;99854.59;;;-6.31;100.00
5814;BME280;2933;52.302;8.134;2022-12-13T20:15:28;99858.78;;;-6.21;100.00
5814;BME280;2933;52.302;8.134;2022-12-13T20:20:31;99794.47;;;-6.57;100.00
5814;BME280;2933;52.302;8.134;2022-12-13T20:25:32;99840.19;;;-6.44;100.00
5814;BME280;2933;52.302;8.134;2022-12-13T20:30:34;99846.09;;;-6.33;100.00
5814;BME280;2933;52.302;8.134;2022-12-13T20:35:37;99848.66;;;-6.30;100.00
5814;BME280;2933;52.302;8.134;2022-12-13T20:40:40;99838.44;;;-6.25;100.00
5814;BME280;2933;52.302;8.134;2022-12-13T20:45:42;99824.09;;;-6.32;100.00
5814;BME280;2933;52.302;8.134;2022-12-13T20:50:45;99767.41;;;-6.67;100.00
5814;BME280;2933;52.302;8.134;2022-12-13T20:55:47;99773.31;;;-6.60;100.00
5814;BME280;2933;52.302;8.134;2022-12-13T21:00:49;99821.56;;;-6.43;100.00
5814;BME280;2933;52.302;8.134;2022-12-13T21:05:52;99810.56;;;-6.47;100.00
5814;BME280;2933;52.302;8.134;2022-12-13T21:10:54;99791.09;;;-6.56;100.00
5814;BME280;2933;52.302;8.134;2022-12-13T21:16:04;99785.13;;;-6.38;100.00
5814;BME280;2933;52.302;8.134;2022-12-13T21:21:07;99792.75;;;-6.38;100.00
5814;BME280;2933;52.302;8.134;2022-12-13T21:26:09;99794.50;;;-6.54;100.00
5814;BME280;2933;52.302;8.134;2022-12-13T21:31:11;99794.47;;;-6.55;100.00
5814;BME280;2933;52.302;8.134;2022-12-13T21:36:17;99789.38;;;-6.49;100.00
5814;BME280;2933;52.302;8.134;2022-12-13T21:41:20;99783.44;;;-6.43;100.00
5814;BME280;2933;52.302;8.134;2022-12-13T21:46:24;99766.53;;;-6.63;100.00
5814;BME280;2933;52.302;8.134;2022-12-13T21:51:28;99763.94;;;-6.43;100.00
5814;BME280;2933;52.302;8.134;2022-12-13T21:56:30;99693.78;;;-6.86;100.00
5814;BME280;2933;52.302;8.134;2022-12-13T22:01:51;99762.25;;;-6.42;100.00
5814;BME280;2933;52.302;8.134;2022-12-13T22:07:13;99762.28;;;-6.48;100.00
5814;BME280;2933;52.302;8.134;2022-12-13T22:12:20;99755.47;;;-6.46;100.00
5814;BME280;2933;52.302;8.134;2022-12-13T22:17:22;99748.75;;;-6.54;100.00
5814;BME280;2933;52.302;8.134;2022-12-13T22:22:25;99736.84;;;-6.42;100.00
5814;BME280;2933;52.302;8.134;2022-12-13T22:27:27;99714.03;;;-6.55;100.00
5814;BME280;2933;52.302;8.134;2022-12-13T22:32:30;99722.41;;;-6.40;100.00
5814;BME280;2933;52.302;8.134;2022-12-13T22:37:33;99691.16;;;-6.64;100.00
5814;BME280;2933;52.302;8.134;2022-12-13T22:42:34;99721.59;;;-6.45;100.00
5814;BME280;2933;52.302;8.134;2022-12-13T22:47:36;99724.97;;;-6.39;100.00
5814;BME280;2933;52.302;8.134;2022-12-13T22:52:39;99728.34;;;-6.37;100.00
5814;BME280;2933;52.302;8.134;2022-12-13T22:57:40;99722.44;;;-6.37;100.00
5814;BME280;2933;52.302;8.134;2022-12-13T23:02:42;99724.97;;;-6.39;100.00
5814;BME280;2933;52.302;8.134;2022-12-13T23:07:45;99708.06;;;-6.47;100.00
5814;BME280;2933;52.302;8.134;2022-12-13T23:12:47;99708.91;;;-6.45;100.00
5814;BME280;2933;52.302;8.134;2022-12-13T23:18:03;99726.66;;;-6.41;100.00
5814;BME280;2933;52.302;8.134;2022-12-13T23:23:06;99664.09;;;-6.65;100.00
5814;BME280;2933;52.302;8.134;2022-12-13T23:28:08;99705.47;;;-6.35;100.00
5814;BME280;2933;52.302;8.134;2022-12-13T23:33:09;99702.06;;;-6.32;100.00
5814;BME280;2933;52.302;8.134;2022-12-13T23:38:12;99669.94;;;-6.51;100.00
5814;BME280;2933;52.302;8.134;2022-12-13T23:43:14;99687.69;;;-6.38;100.00
5814;BME280;2933;52.302;8.134;2022-12-13T23:48:15;99648.00;;;-6.62;100.00
5814;BME280;2933;52.302;8.134;2022-12-13T23:53:18;99691.09;;;-6.41;100.00
5814;BME280;2933;52.302;8.134;2022-12-13T23:58:21;99679.25;;;-6.46;100.00
